• Join FlightAware (Why Join?)
  • Login
  • US Flag 
01:49PM EST


 

Airport Tracker/Info


-or-


 

Live Flight TrackerFlight Track Log ✈ SKW6345 ✈ 09-Aug-2013 ✈ KSFO - KBZN

Flight Track Log - Related Links

Times and Time Zones

All times are in EDT time to prevent confusion due to time zone crossing. See the SKW6345 flight status page for this flight to view local times or setup timezone preferences in your user account.

Time Position Orientation Groundspeed Altitude Reporting Facility
EDT Latitude Longitude Course Direction KTS MPH feet Rate Location/Type
11:15AM 37.6342 -122.3628 38° Northeast 155 178 33,000  Level Oakland Center
11:16AM 37.6500 -122.3333 56° Northeast 173 199 1,800 -18,720 Descending Northern Cal TRACON
11:17AM 37.7000 -122.3000 28° Northeast 198 228 4,300 2,460 Climbing Northern Cal TRACON
11:18AM 37.6323 -122.4176 120° Southeast  Level FlightAware Approximate
11:18AM 37.7569 -122.2181 49° Northeast 222 255 7,900  Level Oakland Center
11:19AM 37.6846 -122.2988 38° Northeast  Level FlightAware Approximate
11:19AM 37.8100 -122.1703 35° Northeast 232 267 10,400  Level Oakland Center
11:20AM 37.7875 -122.1958 38° Northeast  Level FlightAware Approximate
11:20AM 37.8800 -122.1000 38° Northeast 271 312 12,400  Level Oakland Center
11:21AM 37.9475 -122.0347 37° Northeast 306 352 14,000 1,560 Climbing Oakland Center
11:22AM 38.0203 -121.9653 37° Northeast 327 376 15,600 1,560 Climbing Oakland Center
11:23AM 38.0964 -121.8919 37° Northeast 342 394 17,200 1,500 Climbing Oakland Center
11:24AM 38.1719 -121.8192 37° Northeast 343 395 18,700 1,380 Climbing Oakland Center
11:25AM 38.2475 -121.7442 38° Northeast 345 397 20,100 1,260 Climbing Oakland Center
11:26AM 38.3256 -121.6672 38° Northeast 354 407 21,300 1,140 Climbing Oakland Center
11:27AM 38.4056 -121.5900 37° Northeast 361 415 22,500 1,260 Climbing Oakland Center
11:28AM 38.4869 -121.4756 48° Northeast 366 421 23,900 1,140 Climbing Oakland Center
11:29AM 38.5500 -121.3700 53° Northeast 372 428 24,900 960 Climbing Oakland Center
11:30AM 38.6111 -121.2625 54° Northeast 375 432 25,900 960 Climbing Oakland Center
11:31AM 38.6758 -121.1531 53° Northeast 386 444 26,900 840 Climbing Oakland Center
11:32AM 38.7408 -121.0394 54° Northeast 393 452 27,700 660 Climbing Oakland Center
11:33AM 38.8078 -120.9236 53° Northeast 401 461 28,300 540 Climbing Oakland Center
11:34AM 38.8775 -120.8014 54° Northeast 415 478 28,900 540 Climbing Oakland Center
11:35AM 38.9489 -120.6792 53° Northeast 426 490 29,500 540 Climbing Oakland Center
11:36AM 39.0208 -120.5544 53° Northeast 432 497 30,100 540 Climbing Oakland Center
11:38AM 39.0939 -120.4278 53° Northeast 437 503 30,700 660 Climbing Oakland Center
11:39AM 39.1800 -120.2750 54° Northeast 440 506 31,500 660 Climbing Oakland Center
11:40AM 39.2533 -120.1464 54° Northeast 444 511 32,100 540 Climbing Oakland Center
11:41AM 39.3203 -120.0342 52° Northeast 440 506 32,600 420 Climbing Oakland Center
11:42AM 39.3914 -119.9067 54° Northeast 436 502 33,000 180 Climbing Oakland Center
11:43AM 39.4619 -119.7819 54° Northeast 429 494 33,000  Level Oakland Center
11:44AM 39.5575 -119.6503 47° Northeast 421 484 33,000  Level Oakland Center
11:45AM 39.6614 -119.5836 26° Northeast 417 480 33,000  Level Oakland Center
11:46AM 39.7686 -119.5242 23° Northeast 417 480 33,000  Level Oakland Center
11:47AM 39.8789 -119.4639 23° Northeast 423 487 33,000  Level Oakland Center
11:48AM 39.9864 -119.4017 24° Northeast 422 486 33,000  Level Oakland Center
11:49AM 40.0947 -119.3417 23° Northeast 421 484 33,000  Level Oakland Center
11:50AM 40.2044 -119.2783 24° Northeast 426 490 33,000  Level Oakland Center
11:51AM 40.3150 -119.2156 23° Northeast 430 495 33,000  Level Oakland Center
11:52AM 40.4231 -119.1531 24° Northeast 426 490 33,000  Level Oakland Center
11:53AM 40.5319 -119.0908 23° Northeast 425 489 33,000  Level Oakland Center
11:54AM 40.6386 -119.0308 23° Northeast 427 491 33,000  Level Salt Lake Center
11:55AM 40.7417 -118.9722 23° Northeast 423 487 33,000  Level Salt Lake Center
11:56AM 40.8456 -118.9117 24° Northeast 425 489 33,000  Level Salt Lake Center
11:57AM 40.9653 -118.8428 23° Northeast 421 484 33,000  Level Salt Lake Center
11:58AM 41.0669 -118.7825 24° Northeast 418 481 33,000  Level Salt Lake Center
11:59AM 41.1867 -118.7131 24° Northeast 419 482 33,000  Level Salt Lake Center
12:00PM 41.2881 -118.6539 24° Northeast 415 478 33,000  Level Salt Lake Center
12:01PM 41.4061 -118.5844 24° Northeast 414 476 33,000  Level Salt Lake Center
12:02PM 41.5067 -118.5242 24° Northeast 413 475 33,000  Level Salt Lake Center
12:03PM 41.6239 -118.4539 24° Northeast 413 475 33,000  Level Salt Lake Center
12:04PM 41.7239 -118.3944 24° Northeast 410 472 33,000  Level Salt Lake Center
12:05PM 41.8397 -118.3253 24° Northeast 409 471 33,000  Level Salt Lake Center
12:06PM 41.9392 -118.2667 24° Northeast 406 467 33,000  Level Salt Lake Center
12:07PM 42.0383 -118.2072 24° Northeast 406 467 33,000  Level Salt Lake Center
12:08PM 42.1533 -118.1372 24° Northeast 405 466 33,000  Level Salt Lake Center
12:09PM 42.2619 -118.0664 26° Northeast 405 466 33,000  Level Salt Lake Center
12:10PM 42.3603 -118.0089 23° Northeast 402 463 33,000  Level Salt Lake Center
12:11PM 42.4744 -117.9375 25° Northeast 403 464 33,000  Level Salt Lake Center
12:12PM 42.5706 -117.8753 25° Northeast 402 463 33,000  Level Salt Lake Center
12:13PM 42.6508 -117.7522 48° Northeast 383 441 33,000  Level Salt Lake Center
12:14PM 42.7133 -117.6392 53° Northeast 388 447 33,000  Level Salt Lake Center
12:15PM 42.7844 -117.5072 54° Northeast 387 445 33,000  Level Salt Lake Center
12:16PM 42.8464 -117.3931 53° Northeast 390 449 33,000  Level Salt Lake Center
12:17PM 42.9078 -117.2806 53° Northeast 388 447 33,000  Level Salt Lake Center
12:18PM 42.9794 -117.1461 54° Northeast 391 450 33,000  Level Salt Lake Center
12:20PM 43.0406 -117.0317 54° Northeast 390 449 33,000  Level Salt Lake Center
12:21PM 43.1119 -116.8981 54° Northeast 389 448 33,000  Level Salt Lake Center
12:22PM 43.1722 -116.7825 54° Northeast 390 449 33,000  Level Salt Lake Center
12:23PM 43.2433 -116.6489 54° Northeast 390 449 33,000  Level Salt Lake Center
12:24PM 43.3031 -116.5339 54° Northeast 389 448 33,000  Level Salt Lake Center
12:25PM 43.3731 -116.4000 54° Northeast 388 447 33,000  Level Salt Lake Center
12:26PM 43.4325 -116.2858 54° Northeast 385 443 33,000  Level Salt Lake Center
12:27PM 43.5025 -116.1522 54° Northeast 386 444 33,000  Level Salt Lake Center
12:28PM 43.5617 -116.0369 55° Northeast 385 443 33,000  Level Salt Lake Center
12:29PM 43.6308 -115.9017 55° Northeast 388 447 33,000  Level Salt Lake Center
12:30PM 43.6897 -115.7864 55° Northeast 385 443 33,000  Level Salt Lake Center
12:31PM 43.7569 -115.6525 55° Northeast 381 438 33,000  Level Salt Lake Center
12:32PM 43.8150 -115.5372 55° Northeast 382 440 33,000  Level Salt Lake Center
12:33PM 43.8822 -115.4056 55° Northeast 376 433 33,000  Level Salt Lake Center
12:34PM 43.9389 -115.2917 55° Northeast 377 434 33,000  Level Salt Lake Center
12:35PM 44.0056 -115.1589 55° Northeast 377 434 33,000  Level Salt Lake Center
12:36PM 44.0619 -115.0453 55° Northeast 375 432 33,000  Level Salt Lake Center
12:37PM 44.1278 -114.9117 56° Northeast 375 432 33,000  Level Salt Lake Center
12:38PM 44.1833 -114.7964 56° Northeast 375 432 33,000  Level Salt Lake Center
12:40PM 44.2648 -114.6222 57° Northeast  Level FlightAware Approximate
12:40PM 44.3053 -114.5472 57° Northeast 376 433 33,000  Level Salt Lake Center
12:41PM 44.3625 -114.4331 55° Northeast 376 433 33,000  Level Salt Lake Center
12:42PM 44.4283 -114.2969 56° Northeast 378 435 33,000  Level Salt Lake Center
12:43PM 44.4831 -114.1825 56° Northeast 372 428 33,000  Level Salt Lake Center
12:44PM 44.5475 -114.0478 56° Northeast 373 429 33,000  Level Salt Lake Center
12:45PM 44.6078 -113.9189 57° Northeast 374 430 33,000  Level Salt Lake Center
12:46PM 44.6631 -113.8031 56° Northeast 373 429 33,000 -540 Level Salt Lake Center
12:48PM 44.7825 -113.5497 56° Northeast 379 436 31,500 -900 Descending Salt Lake Center
12:50PM 44.8467 -113.4183 55° Northeast 365 420 30,300 -1,200 Descending Salt Lake Center
12:51PM 44.8956 -113.3103 57° Northeast 348 400 29,100 -1,140 Descending Salt Lake Center
12:52PM 44.9436 -113.2075 57° Northeast 331 381 28,000 -1,260 Descending Salt Lake Center
12:53PM 44.9986 -113.0900 56° Northeast 321 369 26,600 -1,260 Descending Salt Lake Center
12:54PM 45.0433 -112.9936 57° Northeast 309 356 25,500 -1,260 Descending Salt Lake Center
12:55PM 45.0944 -112.8819 57° Northeast 306 352 24,100 -1,260 Descending Salt Lake Center
12:56PM 45.1411 -112.7814 57° Northeast 315 362 23,000 -1,260 Descending Salt Lake Center
12:57PM 45.1950 -112.6628 57° Northeast 318 366 21,600 -1,260 Descending Salt Lake Center
12:58PM 45.2411 -112.5619 57° Northeast 319 367 20,500 -1,260 Descending Salt Lake Center
12:59PM 45.2889 -112.4456 60° Northeast 310 357 19,100 -1,260 Descending Salt Lake Center
01:00PM 45.3264 -112.3503 61° Northeast 295 339 18,000 -1,080 Descending Salt Lake Center
01:01PM 45.3667 -112.2456 61° Northeast 278 320 16,900 -1,080 Descending Salt Lake Center
01:02PM 45.3981 -112.1653 61° Northeast 268 308 15,800 -960 Descending Salt Lake Center
01:03PM 45.4328 -112.0753 61° Northeast 262 302 15,000 -480 Descending Salt Lake Center
01:04PM 45.4731 -111.9711 61° Northeast 254 292 14,900 -540 Descending Salt Lake Center
01:05PM 45.5081 -111.8781 62° Northeast 262 302 13,900 -1,020 Descending Salt Lake Center
01:06PM 45.5492 -111.7747 60° Northeast 290 334 12,900 -1,020 Descending Salt Lake Center
01:07PM 45.6153 -111.7017 38° Northeast 303 349 11,900 -1,020 Descending Salt Lake Center
01:08PM 45.6814 -111.6436 32° Northeast 285 328 10,900 -960 Descending Salt Lake Center
01:09PM 45.7442 -111.5939 29° Northeast 269 310 10,000 -960 Descending Salt Lake Center
01:10PM 45.8047 -111.5469 28° Northeast 257 296 9,000 -1,080 Descending Salt Lake Center
01:11PM 45.8717 -111.4903 31° Northeast 241 277 7,800 -780 Descending Salt Lake Center
01:12PM 45.9186 -111.4319 41° Northeast 229 264 7,500 -360 Descending Salt Lake Center
01:13PM 45.9264 -111.3617 81° East 197 227 7,100 -480 Descending Salt Lake Center
01:14PM 45.8867 -111.3053 135° Southeast 202 232 6,600 -540 Descending Salt Lake Center
01:15PM 45.8461 -111.2483 136° Southeast 205 236 6,000 -720 Descending Salt Lake Center
01:16PM 45.8175 -111.2092 136° Southeast 169 194 5,200 -780 Descending Salt Lake Center
01:17PM 45.7878 -111.1667 135° Southeast 158 182 4,500 -720 Descending Salt Lake Center